Airfield :
LOGIN :

Register | Disclaimer

   EN    FR    IT 

 










Legend :    VFR   Marginal VFR   IFR   Intensive IFR   Very Intensive IFR
Visi :
Ceiling :
>= 8 km
>= 3000ft
5 to 8 km
1000 to 3000 ft
1500m to 5 km
500 to 1000 ft
800 to 1500m
200 to 500 ft
< 800m
< 200 ft
Symbols :   Thunderstorms  Fog  Heavy snow  Heavy precipitations  Wind > 20 kt
SIGMETs :     Misc.  Thunderstorms  Icing  Turbulence  Mountain Waves  Volcanic Ashes







- Airport Elevation : 538 ft
- IATA code : TNF
- Download approach charts


LFPN - Toussus Le Noble

CURRENT METAR :
  • 201900Z AUTO 30005KT 9999 FEW025/// SCT043/// ///CB 22/16 Q1015 TEMPO 26015G30KT 3000 SHRA

EXPIRED METARs :
  • 201830Z AUTO 23009KT 200V260 9999 FEW042 BKN220 23/18 Q1015 TEMPO 26015G30KT 3000 SHRA BKN040CB
  • 201800Z AUTO 24009KT 210V270 CAVOK 24/18 Q1014 TEMPO 26015G30KT 3000 SHRA BKN040CB
  • 201730Z AUTO 23010KT CAVOK 24/18 Q1014 TEMPO 26015G30KT 3000 SHRA BKN040CB
  • 201700Z AUTO 23010KT CAVOK 24/19 Q1014 TEMPO 3500 SHRA BKN040TCU BECMG 31007KT
  • 201630Z AUTO 21009KT 9999 FEW043 SCT062 OVC076 22/19 Q1014 TEMPO 24015G30KT 3500 SHRA BKN040TCU

TAF TAF LFPN
Valid from the 20 at 18:00 until the 21 at 03:00 UTC


201700Z 2018/2103 26010G20KT CAVOK
PROB40
TEMPO 2018/2021 26015G30KT 3000 SHRA BKN040CB
BECMG 2021/2024 30007KT
ATIS : +33 1 39 56 54 70
No reported NOTAMs for that airfield.



MET'MAP, your aeronautical weather chart ! - Copyright ORBIFLY December 2007 - Disclaimer

ORBIFLY MET'MAP TEAM :

Programming & Development : Alexandra Zaïnal
Concept & Development : Baudouin d'Aumeries
Co-Development & Prog : Marc-Olivier Méhu
Technical & hardware support : Manuel Goepfert

Contact : metmap@orbifly.com




SOURCES & CREDITS :

   NOAA